createdAt,value
2023-03-23T15:58:17.633Z,99563.27
2023-03-23T16:00:49.343Z,99553.98
2023-03-23T16:03:31.164Z,99555.08
2023-03-23T16:06:03.138Z,99558.52
2023-03-23T16:08:40.574Z,99556.91
2023-03-23T16:11:16.270Z,99550.61
2023-03-23T16:13:50.054Z,99553.50
2023-03-23T16:16:48.860Z,99560.77
2023-03-23T16:19:24.802Z,99563.48
2023-03-23T16:22:03.483Z,99565.61
2023-03-23T16:24:40.067Z,99568.88
2023-03-23T16:27:14.265Z,99572.25
2023-03-23T16:30:02.154Z,99575.23
2023-03-23T16:35:19.810Z,99582.38
2023-03-23T16:38:08.256Z,99585.27
2023-03-23T16:40:55.068Z,99589.60
2023-03-23T16:43:34.889Z,99592.35
2023-03-23T16:46:15.208Z,99598.59
2023-03-23T16:48:49.514Z,99600.05
2023-03-23T16:51:29.014Z,99599.71
2023-03-23T16:54:07.482Z,99601.79
2023-03-23T16:56:48.005Z,99607.91
2023-03-23T16:59:26.841Z,99608.92
2023-03-23T17:02:27.900Z,99612.86
2023-03-23T17:05:24.398Z,99609.75
2023-03-23T17:08:12.924Z,99616.34
2023-03-23T17:10:47.879Z,99624.45
2023-03-23T17:13:23.601Z,99629.48
2023-03-23T17:16:04.379Z,99631.95
2023-03-23T17:18:33.120Z,99628.00
2023-03-23T17:21:02.134Z,99628.11
2023-03-23T17:23:39.929Z,99630.02
2023-03-23T17:26:10.471Z,99634.65
2023-03-23T17:28:42.074Z,99630.89
2023-03-23T17:31:16.509Z,99630.42
2023-03-23T17:33:59.310Z,99630.69
2023-03-23T17:36:28.504Z,99632.03
2023-03-23T17:39:06.720Z,99631.36
2023-03-23T17:41:38.104Z,99632.53
2023-03-23T17:44:11.824Z,99635.70
2023-03-23T17:46:42.258Z,99627.54
2023-03-23T17:49:14.564Z,99634.07
2023-03-23T17:51:50.280Z,99638.52
2023-03-23T17:54:25.229Z,99640.86
2023-03-23T17:56:54.397Z,99644.08
2023-03-23T17:59:28.833Z,99638.13
2023-03-23T18:02:02.151Z,99638.21
2023-03-23T18:04:40.258Z,99645.61
2023-03-23T18:07:17.833Z,99651.52
2023-03-23T18:10:11.237Z,99656.02
2023-03-23T18:12:48.476Z,99659.02
2023-03-23T18:15:18.694Z,99659.14
2023-03-23T18:18:05.948Z,99662.88
2023-03-23T18:20:40.510Z,99663.39
2023-03-23T18:23:12.341Z,99667.20
2023-03-23T18:25:48.471Z,99671.05
2023-03-23T18:28:37.981Z,99675.30
2023-03-23T18:31:19.755Z,99674.53
2023-03-23T18:34:01.688Z,99671.83
2023-03-23T18:36:34.769Z,99674.68
2023-03-23T18:39:12.439Z,99677.75
2023-03-23T18:41:55.892Z,99677.59
2023-03-23T18:44:27.807Z,99676.79
2023-03-23T18:47:00.140Z,99677.54
2023-03-23T18:49:37.031Z,99685.95
2023-03-23T18:52:17.001Z,99690.66
2023-03-23T18:55:12.933Z,99694.84
2023-03-23T18:57:50.339Z,99692.32
2023-03-23T19:00:22.385Z,99684.22
2023-03-23T19:03:00.962Z,99680.08
2023-03-23T19:05:32.268Z,99680.30
2023-03-23T19:08:06.101Z,99678.48
2023-03-23T19:10:43.424Z,99677.52
2023-03-23T19:13:16.708Z,99676.15
2023-03-23T19:15:49.224Z,99675.01
2023-03-23T19:18:19.865Z,99680.25
2023-03-23T19:21:12.390Z,99687.32
2023-03-23T19:23:47.053Z,99684.95
2023-03-23T19:26:24.235Z,99674.30
2023-03-23T19:31:36.396Z,99689.55
2023-03-23T19:34:10.369Z,99696.30
2023-03-23T19:36:39.508Z,99691.39
2023-03-23T19:39:08.302Z,99680.34
2023-03-23T19:41:39.145Z,99676.99
2023-03-23T19:44:08.092Z,99674.59
2023-03-23T19:46:41.051Z,99666.46
2023-03-23T19:49:11.755Z,99662.04
2023-03-23T19:51:42.973Z,99660.45
2023-03-23T19:54:13.921Z,99666.54
2023-03-23T19:56:50.762Z,99666.41
2023-03-23T19:59:22.495Z,99667.78
2023-03-23T20:01:55.045Z,99673.43
2023-03-23T20:04:29.215Z,99667.81
2023-03-23T20:07:03.273Z,99670.60
2023-03-23T20:09:40.894Z,99674.45
2023-03-23T20:12:19.168Z,99674.78
2023-03-23T20:14:53.249Z,99673.98
2023-03-23T20:17:29.569Z,99675.91
2023-03-23T20:19:58.486Z,99673.69
2023-03-23T20:22:35.588Z,99681.15
2023-03-23T20:25:08.827Z,99686.40
2023-03-23T20:27:49.434Z,99688.17
2023-03-23T20:30:30.860Z,99688.60
2023-03-23T20:33:15.032Z,99688.27
2023-03-23T20:35:51.699Z,99695.84
2023-03-23T20:38:35.922Z,99698.05
2023-03-23T20:41:18.067Z,99700.07
2023-03-23T20:44:03.421Z,99700.32
2023-03-23T20:46:32.809Z,99701.30
2023-03-23T20:49:02.261Z,99698.09
2023-03-23T20:51:37.099Z,99692.55
2023-03-23T20:54:07.262Z,99688.85
2023-03-23T20:56:37.134Z,99687.33
2023-03-23T20:59:08.392Z,99689.61
2023-03-23T21:01:40.485Z,99694.97
2023-03-23T21:04:17.613Z,99691.22
2023-03-23T21:06:51.439Z,99691.23
2023-03-23T21:09:28.177Z,99696.70
2023-03-23T21:12:05.944Z,99697.33
2023-03-23T21:14:44.439Z,99703.09
2023-03-23T21:17:30.350Z,99705.52
2023-03-23T21:20:12.471Z,99711.27
2023-03-23T21:22:43.975Z,99714.96
2023-03-23T21:25:34.870Z,99716.83
2023-03-23T21:28:12.254Z,99713.95
2023-03-23T21:30:50.232Z,99714.47
2023-03-23T21:33:21.665Z,99712.88
2023-03-23T21:36:00.567Z,99715.70
2023-03-23T21:38:36.736Z,99719.27
2023-03-23T21:41:16.238Z,99717.15
2023-03-23T21:43:50.437Z,99714.77
2023-03-23T21:46:24.378Z,99717.20
2023-03-23T21:48:58.950Z,99722.20
2023-03-23T21:51:54.912Z,99724.34
2023-03-23T21:54:32.216Z,99722.42
2023-03-23T21:57:22.953Z,99722.79
2023-03-23T22:00:14.682Z,99722.42
2023-03-23T22:02:45.912Z,99727.81
2023-03-23T22:05:24.161Z,99722.36
2023-03-23T22:08:01.073Z,99720.73
2023-03-23T22:10:29.792Z,99723.54
2023-03-23T22:13:01.354Z,99720.68
2023-03-23T22:15:36.069Z,99717.43
2023-03-23T22:18:18.647Z,99721.98
2023-03-23T22:20:50.908Z,99718.65
2023-03-23T22:23:26.422Z,99717.28
2023-03-23T22:25:57.709Z,99718.77
2023-03-23T22:28:35.121Z,99719.43
2023-03-23T22:31:18.236Z,99715.16
2023-03-23T22:33:48.348Z,99715.34
2023-03-23T22:36:24.009Z,99713.67
2023-03-23T22:38:55.931Z,99713.39
2023-03-23T22:41:35.153Z,99712.69
2023-03-23T22:44:17.828Z,99717.71
2023-03-23T22:46:51.939Z,99714.95
2023-03-23T22:49:21.090Z,99715.35
2023-03-23T22:51:52.807Z,99713.49
2023-03-23T22:54:26.586Z,99719.52
2023-03-23T22:57:01.021Z,99720.92
2023-03-23T22:59:38.251Z,99720.58
2023-03-23T23:02:11.787Z,99722.59
2023-03-23T23:04:43.014Z,99718.60
2023-03-23T23:07:19.182Z,99717.05
2023-03-23T23:09:51.756Z,99723.88
2023-03-23T23:12:35.106Z,99722.48
2023-03-23T23:15:16.536Z,99715.72
2023-03-23T23:17:47.338Z,99715.27
2023-03-23T23:20:21.048Z,99710.80
2023-03-23T23:22:58.672Z,99710.18
2023-03-23T23:25:36.895Z,99710.77
2023-03-23T23:28:19.474Z,99711.52
2023-03-23T23:30:49.369Z,99709.21
2023-03-23T23:33:20.428Z,99705.79
2023-03-23T23:35:49.650Z,99708.97
2023-03-23T23:38:28.067Z,99706.69
2023-03-23T23:41:09.493Z,99707.35
2023-03-23T23:43:41.079Z,99709.22
2023-03-23T23:46:14.923Z,99712.59
2023-03-23T23:48:48.745Z,99713.46
2023-03-23T23:51:17.528Z,99712.28
2023-03-23T23:53:55.211Z,99710.18
2023-03-23T23:56:35.892Z,99710.61
2023-03-23T23:59:15.373Z,99712.71
